Time;durP1;ratioP1;P1;durP2;ratioP2;P2;SDS_P1;SDS_P2;PMS_P1;PMS_P2;Temp;Humidity;BMP_temperature;BMP_pressure;BME280_temperature;BME280_humidity;BME280_pressure;Samples;Min_cycle;Max_cycle;Signal;HPM_P1;HPM_P2
2023/08/30 00:03:13;;;;;;;3.42;3.13;;;;;;;17.30;91.02;100751.50;6243479;28;20231;-68
2023/08/30 00:06:34;;;;;;;3.97;3.53;;;;;;;17.32;91.07;100741.25;6241899;28;20228;-68
2023/08/30 00:09:57;;;;;;;4.10;3.75;;;;;;;17.23;91.49;100739.66;6239981;28;20249;-68
2023/08/30 00:13:18;;;;;;;4.57;4.13;;;;;;;17.28;91.56;100740.78;6243010;28;20625;-68
2023/08/30 00:16:39;;;;;;;3.97;3.35;;;;;;;17.26;91.61;100734.66;6238353;28;20231;-69
2023/08/30 00:20:00;;;;;;;4.57;3.53;;;;;;;17.18;91.95;100742.06;6234207;28;20235;-69
2023/08/30 00:23:21;;;;;;;4.03;3.63;;;;;;;17.13;92.02;100736.28;6238988;28;20240;-69
2023/08/30 00:26:43;;;;;;;7.45;4.32;;;;;;;17.05;91.99;100739.94;6244798;28;20232;-68
2023/08/30 00:30:08;;;;;;;4.90;3.05;;;;;;;16.97;92.48;100741.88;6239756;28;20231;-68
2023/08/30 00:33:29;;;;;;;2.95;2.75;;;;;;;17.10;92.61;100736.69;6241468;28;20235;-68
2023/08/30 00:36:50;;;;;;;6.30;3.13;;;;;;;17.04;92.83;100730.09;6229775;28;20326;-68
2023/08/30 00:40:12;;;;;;;3.65;2.88;;;;;;;16.93;92.58;100732.38;6218599;28;22076;-68
2023/08/30 00:43:34;;;;;;;4.20;3.80;;;;;;;16.88;93.30;100738.34;6238670;28;20593;-69
2023/08/30 00:46:55;;;;;;;3.70;3.33;;;;;;;16.87;93.31;100736.66;6240753;28;20216;-68
2023/08/30 00:50:16;;;;;;;3.90;3.30;;;;;;;16.81;93.46;100729.22;6239375;28;20248;-68
2023/08/30 00:53:38;;;;;;;6.00;4.15;;;;;;;16.84;93.39;100736.16;6237838;28;20228;-68
2023/08/30 00:57:01;;;;;;;4.15;3.63;;;;;;;16.74;93.89;100739.97;6243256;28;20294;-68
2023/08/30 01:00:23;;;;;;;2.65;2.35;;;;;;;16.73;94.23;100726.53;6217358;28;20311;-69
2023/08/30 01:03:44;;;;;;;4.38;3.30;;;;;;;16.67;93.97;100727.25;6230386;28;20227;-68
2023/08/30 01:07:05;;;;;;;3.03;2.60;;;;;;;16.63;94.10;100717.75;6244470;28;20234;-69
2023/08/30 01:10:39;;;;;;;2.85;2.65;;;;;;;16.56;94.27;100716.78;6243313;28;20600;-68
2023/08/30 01:14:08;;;;;;;3.78;3.47;;;;;;;16.56;94.52;100717.59;6228502;28;20912;-68
2023/08/30 01:17:31;;;;;;;3.40;3.10;;;;;;;16.44;94.43;100723.59;6237350;28;20230;-68
2023/08/30 01:20:54;;;;;;;5.97;3.38;;;;;;;16.52;95.13;100721.72;6218417;28;20228;-68
2023/08/30 01:24:26;;;;;;;3.45;3.17;;;;;;;16.49;94.77;100722.09;6230558;28;20465;-69
2023/08/30 01:27:51;;;;;;;3.45;3.15;;;;;;;16.46;94.81;100711.50;6244012;28;20812;-68
2023/08/30 01:31:13;;;;;;;3.40;3.08;;;;;;;16.49;95.13;100700.31;6231988;28;20247;-69
2023/08/30 01:34:35;;;;;;;3.47;2.70;;;;;;;16.54;94.63;100700.59;6230651;28;20247;-68
2023/08/30 01:37:58;;;;;;;5.22;3.80;;;;;;;16.55;94.36;100705.03;6242082;28;20232;-69
2023/08/30 01:41:19;;;;;;;4.10;3.47;;;;;;;16.43;94.73;100702.88;6242253;28;20263;-68
2023/08/30 01:44:44;;;;;;;3.08;2.72;;;;;;;16.48;94.77;100693.13;6228855;28;20227;-69
2023/08/30 01:48:08;;;;;;;5.15;3.10;;;;;;;16.35;95.02;100692.88;6244180;28;20236;-68
2023/08/30 01:51:29;;;;;;;3.57;3.17;;;;;;;16.43;95.30;100700.13;6244620;28;20239;-69
2023/08/30 01:54:52;;;;;;;4.23;3.27;;;;;;;16.47;95.37;100701.47;6233997;28;20232;-69
2023/08/30 01:58:13;;;;;;;5.90;3.13;;;;;;;16.48;95.36;100697.75;6242061;28;20689;-68
2023/08/30 02:01:35;;;;;;;5.27;3.27;;;;;;;16.34;95.49;100701.19;6245596;28;20306;-68
2023/08/30 02:04:56;;;;;;;3.40;3.10;;;;;;;16.38;95.55;100688.94;6245943;28;20236;-68
2023/08/30 02:08:18;;;;;;;4.13;3.53;;;;;;;16.43;95.53;100686.53;6247366;28;20235;-68
2023/08/30 02:11:43;;;;;;;2.83;2.57;;;;;;;16.39;95.65;100682.47;6243702;28;20232;-69
2023/08/30 02:15:08;;;;;;;4.63;2.90;;;;;;;16.44;95.74;100686.34;6239332;28;20633;-69
2023/08/30 02:18:30;;;;;;;3.27;2.97;;;;;;;16.42;95.67;100674.78;6245919;28;20227;-68
2023/08/30 02:21:52;;;;;;;3.83;3.03;;;;;;;16.29;95.41;100681.84;6229551;28;20228;-68
2023/08/30 02:25:13;;;;;;;3.40;2.87;;;;;;;16.33;95.92;100681.31;6236931;28;20243;-69
2023/08/30 02:28:34;;;;;;;5.07;3.23;;;;;;;16.30;96.20;100675.38;6246267;28;20227;-68
2023/08/30 02:31:55;;;;;;;5.03;2.93;;;;;;;16.34;95.92;100676.72;6240651;28;20689;-68
2023/08/30 02:35:17;;;;;;;5.20;3.67;;;;;;;16.34;96.30;100676.72;6233099;28;20239;-68
2023/08/30 02:38:38;;;;;;;3.40;2.80;;;;;;;16.39;96.40;100668.88;6238890;28;20223;-68
2023/08/30 02:41:59;;;;;;;3.03;2.57;;;;;;;16.37;96.63;100673.66;6238490;28;20559;-69
2023/08/30 02:45:20;;;;;;;3.87;3.57;;;;;;;16.38;96.68;100668.03;6242765;28;20236;-68
2023/08/30 02:48:41;;;;;;;4.07;3.67;;;;;;;16.24;97.42;100681.53;6216631;28;22123;-68
2023/08/30 02:52:04;;;;;;;5.43;3.97;;;;;;;16.17;98.17;100684.09;6231131;28;20259;-68
2023/08/30 02:55:25;;;;;;;4.30;3.90;;;;;;;16.29;98.74;100685.41;6216939;28;20240;-69
2023/08/30 02:58:47;;;;;;;4.43;3.57;;;;;;;16.33;98.58;100683.19;6227869;28;20227;-69
2023/08/30 03:02:08;;;;;;;4.80;3.37;;;;;;;16.45;98.57;100676.31;6235992;28;20239;-68
2023/08/30 03:05:29;;;;;;;4.03;3.37;;;;;;;16.50;98.37;100682.94;6234368;28;20271;-68
2023/08/30 03:08:52;;;;;;;4.80;4.40;;;;;;;16.52;98.31;100680.06;6220067;28;20616;-68
2023/08/30 03:12:13;;;;;;;3.90;3.60;;;;;;;16.49;97.54;100674.94;6216526;28;20243;-68
2023/08/30 03:15:34;;;;;;;4.33;3.30;;;;;;;16.24;98.07;100676.09;6237173;28;20232;-68
2023/08/30 03:18:58;;;;;;;3.97;3.67;;;;;;;16.41;98.47;100681.28;6231703;28;20240;-69
2023/08/30 03:22:20;;;;;;;4.97;2.75;;;;;;;16.32;98.48;100682.34;6218161;28;20228;-68
2023/08/30 03:25:42;;;;;;;4.40;3.65;;;;;;;16.38;98.57;100675.31;6226668;28;20244;-69
2023/08/30 03:29:03;;;;;;;5.45;4.35;;;;;;;16.31;98.59;100680.63;6232655;28;20228;-69
2023/08/30 03:32:24;;;;;;;18.45;4.75;;;;;;;16.31;98.49;100677.91;6230099;28;20228;-68
2023/08/30 03:35:44;;;;;;;4.10;3.70;;;;;;;16.32;98.21;100671.44;6243185;28;20274;-68
2023/08/30 03:39:06;;;;;;;3.55;3.25;;;;;;;16.32;98.11;100671.44;6229172;28;20605;-69
2023/08/30 03:42:29;;;;;;;3.67;3.40;;;;;;;16.16;98.26;100666.09;6248279;28;20283;-68
2023/08/30 03:45:52;;;;;;;3.87;3.53;;;;;;;16.23;98.14;100667.06;6231132;28;20909;-68
2023/08/30 03:49:13;;;;;;;4.63;4.23;;;;;;;16.02;98.79;100664.09;6216155;28;20536;-69
2023/08/30 03:52:34;;;;;;;4.40;3.57;;;;;;;15.73;99.12;100663.88;6243375;28;20358;-68
2023/08/30 03:55:55;;;;;;;3.43;3.20;;;;;;;15.65;100.00;100662.03;6242156;28;20821;-68
2023/08/30 03:59:19;;;;;;;8.30;4.23;;;;;;;15.82;100.00;100649.25;6233351;28;20228;-68
2023/08/30 04:02:40;;;;;;;6.03;5.47;;;;;;;15.90;100.00;100650.06;6202242;28;20348;-68
2023/08/30 04:06:01;;;;;;;7.10;6.40;;;;;;;15.96;100.00;100648.50;6222284;28;20911;-68
2023/08/30 04:09:23;;;;;;;7.50;5.90;;;;;;;16.00;100.00;100644.41;6224262;28;20243;-68
2023/08/30 04:12:44;;;;;;;10.13;4.70;;;;;;;15.94;100.00;100639.66;6221966;28;20344;-69
2023/08/30 04:16:06;;;;;;;11.73;10.33;;;;;;;16.16;100.00;100624.44;6235312;28;21025;-68
2023/08/30 04:19:27;;;;;;;6.40;5.17;;;;;;;15.90;99.25;100628.31;6233766;28;20283;-67
2023/08/30 04:22:48;;;;;;;4.67;4.27;;;;;;;15.70;99.82;100623.47;6238479;28;20628;-68
2023/08/30 04:26:09;;;;;;;5.03;4.43;;;;;;;15.49;100.00;100624.03;6224104;28;20239;-68
2023/08/30 04:29:31;;;;;;;4.77;4.37;;;;;;;15.36;100.00;100620.97;6207932;28;20239;-68
2023/08/30 04:32:53;;;;;;;5.33;4.93;;;;;;;15.48;100.00;100621.50;6220959;28;20239;-67
2023/08/30 04:36:14;;;;;;;10.83;5.57;;;;;;;15.62;100.00;100615.34;6244410;28;20362;-68
2023/08/30 04:39:35;;;;;;;5.27;4.57;;;;;;;15.71;100.00;100612.41;6226217;28;20249;-68
2023/08/30 04:42:56;;;;;;;4.37;3.97;;;;;;;15.61;100.00;100608.19;6225308;28;20239;-69
2023/08/30 04:46:17;;;;;;;12.37;5.57;;;;;;;15.88;100.00;100614.03;6225109;28;20243;-67
2023/08/30 04:49:40;;;;;;;10.90;4.63;;;;;;;15.65;100.00;100618.56;6224722;28;20255;-68
2023/08/30 04:53:00;;;;;;;4.40;4.10;;;;;;;15.49;100.00;100613.19;6208530;28;20236;-68
2023/08/30 04:56:21;;;;;;;5.93;4.40;;;;;;;15.36;100.00;100617.41;6224187;28;20247;-68
2023/08/30 04:59:43;;;;;;;7.67;4.80;;;;;;;15.29;100.00;100619.97;6235133;28;20230;-67
2023/08/30 05:03:05;;;;;;;5.77;4.40;;;;;;;15.33;100.00;100629.50;6225679;28;21207;-68
2023/08/30 05:06:28;;;;;;;5.80;4.80;;;;;;;15.44;100.00;100622.84;6223007;28;20926;-69
2023/08/30 05:09:48;;;;;;;6.30;5.70;;;;;;;15.54;100.00;100613.47;6247388;28;20613;-68
2023/08/30 05:13:10;;;;;;;6.10;5.50;;;;;;;15.68;100.00;100611.91;6230656;28;20227;-68
2023/08/30 05:16:32;;;;;;;6.00;5.50;;;;;;;15.68;100.00;100617.34;6226210;28;20231;-68
2023/08/30 05:19:53;;;;;;;5.37;4.20;;;;;;;15.68;100.00;100622.78;6232433;28;20792;-66
2023/08/30 05:23:16;;;;;;;6.03;5.03;;;;;;;15.72;100.00;100613.25;6225146;28;20235;-67
2023/08/30 05:26:37;;;;;;;6.47;4.50;;;;;;;15.97;100.00;100615.72;6242368;28;20240;-67
2023/08/30 05:29:57;;;;;;;5.13;4.67;;;;;;;16.27;98.92;100614.00;6245748;28;20503;-68
2023/08/30 05:33:19;;;;;;;5.70;4.73;;;;;;;16.30;97.72;100618.25;6226619;28;20688;-68
2023/08/30 05:37:12;;;;;;;6.33;5.13;;;;;;;16.25;97.24;100612.50;6199498;28;20269;-68
2023/08/30 05:40:52;;;;;;;6.83;5.87;;;;;;;15.89;97.46;100623.91;6236734;28;20239;-67
2023/08/30 05:44:13;;;;;;;5.50;5.03;;;;;;;15.81;98.51;100617.66;6237822;28;20227;-68
2023/08/30 05:47:34;;;;;;;5.87;5.27;;;;;;;16.07;98.14;100622.78;6234058;28;20240;-68
2023/08/30 05:50:55;;;;;;;5.13;4.70;;;;;;;16.20;97.64;100617.63;6209422;28;20223;-68
2023/08/30 05:54:16;;;;;;;5.05;4.57;;;;;;;16.30;96.88;100616.38;6248160;28;20602;-68
2023/08/30 05:57:38;;;;;;;5.23;4.73;;;;;;;16.07;97.16;100623.63;6240433;28;20223;-67
2023/08/30 06:00:59;;;;;;;7.53;4.33;;;;;;;16.22;97.37;100608.25;6233868;28;20612;-68
2023/08/30 06:04:20;;;;;;;5.07;4.57;;;;;;;16.29;97.46;100597.53;6243793;28;20224;-67
2023/08/30 06:07:41;;;;;;;5.87;5.30;;;;;;;16.11;96.85;100605.94;6247694;28;20318;-66
2023/08/30 06:11:02;;;;;;;6.17;5.57;;;;;;;16.51;95.63;100592.13;6232078;28;20228;-66
2023/08/30 06:14:24;;;;;;;5.13;4.63;;;;;;;16.54;94.86;100594.47;6246131;28;20243;-67
2023/08/30 06:17:46;;;;;;;6.82;5.00;;;;;;;16.65;93.79;100595.91;6253461;28;20232;-69
2023/08/30 06:21:07;;;;;;;5.53;4.63;;;;;;;16.78;92.84;100594.28;6234909;28;20235;-68
2023/08/30 06:24:28;;;;;;;5.23;4.73;;;;;;;16.89;92.20;100592.16;6245291;28;20251;-67
2023/08/30 06:27:57;;;;;;;6.20;4.67;;;;;;;16.99;91.31;100582.69;6245948;28;20240;-68
2023/08/30 06:31:19;;;;;;;4.63;4.23;;;;;;;17.27;90.33;100583.75;6250100;28;20823;-68
2023/08/30 06:34:40;;;;;;;5.72;5.25;;;;;;;17.09;89.05;100583.28;6247700;28;20236;-66
2023/08/30 06:38:01;;;;;;;7.37;5.40;;;;;;;17.51;89.06;100577.22;6248674;28;20231;-67
2023/08/30 06:41:23;;;;;;;6.13;4.43;;;;;;;17.40;87.60;100574.94;6252069;28;20604;-67
2023/08/30 06:44:44;;;;;;;6.32;5.50;;;;;;;17.51;86.98;100569.06;6242509;28;20228;-67
2023/08/30 06:48:07;;;;;;;6.65;4.88;;;;;;;17.65;86.63;100567.38;6233674;28;20577;-67
2023/08/30 06:51:28;;;;;;;6.35;5.57;;;;;;;17.69;85.31;100574.97;6245753;28;20326;-67
2023/08/30 06:54:49;;;;;;;5.80;4.83;;;;;;;17.66;85.42;100566.31;6231883;28;20320;-67
2023/08/30 06:58:10;;;;;;;5.57;5.05;;;;;;;17.74;84.96;100561.63;6249209;28;20228;-67
2023/08/30 07:01:31;;;;;;;4.95;4.55;;;;;;;18.07;84.45;100560.13;6243261;28;20236;-65
2023/08/30 07:04:56;;;;;;;7.07;4.80;;;;;;;18.29;83.37;100561.84;6253199;28;20232;-66
2023/08/30 07:08:17;;;;;;;6.88;4.47;;;;;;;18.32;82.99;100552.44;6247595;28;20315;-67
2023/08/30 07:11:38;;;;;;;5.05;4.45;;;;;;;18.37;82.37;100558.16;6246625;28;20708;-66
2023/08/30 07:14:59;;;;;;;10.75;6.57;;;;;;;18.16;82.77;100564.44;6244958;28;20236;-67
2023/08/30 07:18:20;;;;;;;5.03;4.40;;;;;;;18.63;82.28;100557.63;6244261;28;20224;-70
2023/08/30 07:21:42;;;;;;;6.75;5.97;;;;;;;18.61;81.18;100560.53;6243830;28;20632;-69
2023/08/30 07:25:03;;;;;;;5.75;5.22;;;;;;;18.40;81.30;100560.47;6252603;28;20710;-69
2023/08/30 07:28:24;;;;;;;4.78;4.22;;;;;;;18.68;80.76;100561.44;6238782;28;20716;-67
2023/08/30 07:31:45;;;;;;;5.82;5.20;;;;;;;18.27;81.92;100560.38;6246464;28;20527;-68
2023/08/30 07:35:07;;;;;;;11.13;6.13;;;;;;;18.55;80.87;100557.72;6246969;28;20871;-69
2023/08/30 07:38:29;;;;;;;7.25;4.97;;;;;;;18.50;80.90;100557.47;6232693;28;20253;-68
2023/08/30 07:41:50;;;;;;;5.28;4.75;;;;;;;18.63;80.92;100566.63;6245551;28;20234;-67
2023/08/30 07:45:11;;;;;;;12.27;4.22;;;;;;;18.90;80.29;100559.53;6248018;28;20593;-67
2023/08/30 07:48:32;;;;;;;4.25;3.85;;;;;;;18.47;79.63;100577.81;6245261;28;20240;-66
2023/08/30 07:51:53;;;;;;;5.50;4.50;;;;;;;18.54;79.59;100584.22;6230245;28;20239;-66
2023/08/30 07:55:15;;;;;;;6.28;4.30;;;;;;;18.31;80.26;100581.59;6231737;28;20236;-67
2023/08/30 07:58:36;;;;;;;5.22;4.70;;;;;;;18.73;79.79;100571.78;6234025;28;20235;-67
2023/08/30 08:01:57;;;;;;;5.03;4.60;;;;;;;19.13;79.32;100569.16;6212199;28;20251;-68
2023/08/30 08:05:18;;;;;;;7.05;5.28;;;;;;;18.94;78.48;100571.75;6236958;28;20263;-67
2023/08/30 08:08:39;;;;;;;5.30;4.68;;;;;;;19.13;78.82;100566.44;6236292;28;20235;-67
2023/08/30 08:12:01;;;;;;;5.63;4.60;;;;;;;19.55;76.98;100564.63;6247116;28;20223;-66
2023/08/30 08:15:22;;;;;;;6.60;6.00;;;;;;;19.17;76.57;100568.78;6237747;28;20612;-66
2023/08/30 08:18:43;;;;;;;7.10;5.90;;;;;;;19.30;76.32;100563.38;6247851;28;20240;-67
2023/08/30 08:22:04;;;;;;;7.78;5.85;;;;;;;19.19;76.81;100570.28;6250329;28;20231;-68
2023/08/30 08:25:25;;;;;;;7.00;6.05;;;;;;;19.40;75.90;100574.88;6243236;28;20235;-68
2023/08/30 08:28:47;;;;;;;8.50;5.55;;;;;;;19.59;75.47;100571.38;6225812;28;21757;-68
2023/08/30 08:32:08;;;;;;;7.40;5.30;;;;;;;19.89;73.67;100575.53;6243643;28;20231;-67
2023/08/30 08:35:29;;;;;;;7.80;5.55;;;;;;;19.36;74.43;100577.13;6251765;28;20231;-67
2023/08/30 08:38:49;;;;;;;6.63;5.80;;;;;;;20.06;73.38;100579.63;6238416;28;20790;-68
2023/08/30 08:42:10;;;;;;;10.60;7.18;;;;;;;19.74;73.23;100581.16;6232657;28;20654;-68
2023/08/30 08:45:35;;;;;;;4.50;4.18;;;;;;;20.98;71.14;100583.44;6236403;28;20251;-68
2023/08/30 08:48:57;;;;;;;7.15;4.97;;;;;;;20.67;69.23;100585.94;6216022;28;20228;-65
2023/08/30 08:52:19;;;;;;;6.85;4.82;;;;;;;19.69;71.69;100580.09;6250372;28;20242;-64
2023/08/30 08:55:41;;;;;;;5.07;4.28;;;;;;;20.27;71.18;100578.66;6248894;28;20586;-64
2023/08/30 08:59:03;;;;;;;14.55;6.03;;;;;;;19.64;71.23;100580.69;6240202;28;20243;-64
2023/08/30 09:02:26;;;;;;;10.02;6.00;;;;;;;19.08;72.92;100587.22;6240993;28;20864;-63
2023/08/30 09:05:51;;;;;;;5.72;4.55;;;;;;;18.96;72.49;100581.44;6234775;28;20583;-64
2023/08/30 09:09:13;;;;;;;7.28;4.53;;;;;;;19.68;70.71;100587.44;6244773;28;20509;-67
2023/08/30 09:12:35;;;;;;;6.30;4.32;;;;;;;19.54;70.82;100582.09;6252154;28;20235;-67
2023/08/30 09:15:56;;;;;;;5.13;4.53;;;;;;;19.51;70.76;100577.88;6253528;28;20235;-67
2023/08/30 09:19:21;;;;;;;3.97;3.58;;;;;;;19.38;70.90;100583.25;6245901;28;20227;-67
2023/08/30 09:22:44;;;;;;;5.07;4.28;;;;;;;20.16;69.58;100580.06;6254142;28;20231;-67
2023/08/30 09:26:05;;;;;;;7.28;4.38;;;;;;;20.54;67.48;100581.28;6254433;28;20235;-67
2023/08/30 09:29:26;;;;;;;4.82;3.55;;;;;;;20.35;66.26;100584.81;6249164;28;20271;-68
2023/08/30 09:32:47;;;;;;;7.82;5.47;;;;;;;19.77;67.53;100585.38;6249951;28;20255;-67
2023/08/30 09:36:12;;;;;;;5.15;4.47;;;;;;;19.89;65.93;100586.50;6251556;28;20231;-68
2023/08/30 09:39:49;;;;;;;6.40;4.45;;;;;;;19.76;65.63;100572.75;6244708;28;20609;-69
2023/08/30 09:43:11;;;;;;;4.47;3.22;;;;;;;19.79;64.89;100577.81;6234757;28;20232;-68
2023/08/30 09:46:32;;;;;;;4.10;3.50;;;;;;;19.93;64.78;100572.19;6248245;28;20558;-68
2023/08/30 09:49:56;;;;;;;4.55;3.60;;;;;;;19.76;65.65;100570.84;6243520;28;20334;-67
2023/08/30 09:53:20;;;;;;;7.22;5.18;;;;;;;19.65;66.69;100574.16;6249924;28;20236;-67
2023/08/30 09:56:42;;;;;;;4.65;3.50;;;;;;;19.40;68.29;100569.41;6252141;28;20536;-68
2023/08/30 10:00:04;;;;;;;3.65;3.00;;;;;;;19.63;67.91;100565.31;6241379;28;20231;-68
2023/08/30 10:03:26;;;;;;;4.68;3.67;;;;;;;19.60;68.03;100565.72;6243260;28;20232;-68
2023/08/30 10:06:48;;;;;;;5.50;3.88;;;;;;;19.34;66.84;100567.47;6252762;28;20235;-68
2023/08/30 10:10:11;;;;;;;5.05;3.67;;;;;;;19.56;66.88;100561.72;6256617;28;20235;-68
2023/08/30 10:13:36;;;;;;;5.65;3.45;;;;;;;19.87;65.61;100561.22;6246801;28;20613;-68
2023/08/30 10:17:02;;;;;;;3.58;3.00;;;;;;;20.03;65.09;100562.75;6246436;28;20231;-68
2023/08/30 10:20:23;;;;;;;3.50;3.20;;;;;;;20.09;63.86;100561.97;6238055;28;20231;-68
2023/08/30 10:23:46;;;;;;;4.13;3.53;;;;;;;20.32;63.43;100556.97;6240274;28;20708;-67
2023/08/30 10:27:10;;;;;;;3.47;2.80;;;;;;;20.27;61.03;100556.78;6242334;28;20228;-68
2023/08/30 10:30:32;;;;;;;5.43;2.88;;;;;;;20.18;60.48;100561.56;6245368;28;20791;-67
2023/08/30 10:33:55;;;;;;;3.75;2.72;;;;;;;19.69;60.38;100560.94;6230821;28;20225;-66
2023/08/30 10:37:17;;;;;;;3.38;2.60;;;;;;;19.83;60.49;100566.28;6254057;28;20236;-67
2023/08/30 10:40:45;;;;;;;2.90;2.67;;;;;;;19.94;59.55;100559.38;6252219;28;20239;-66
2023/08/30 10:44:14;;;;;;;4.53;2.83;;;;;;;21.04;58.86;100551.59;6240434;28;21347;-67
2023/08/30 10:47:37;;;;;;;3.90;2.80;;;;;;;21.62;57.27;100553.41;6246541;28;20325;-67
2023/08/30 10:50:58;;;;;;;3.47;3.15;;;;;;;20.95;57.80;100555.56;6239382;28;20231;-67
2023/08/30 10:54:20;;;;;;;7.40;2.70;;;;;;;21.69;57.21;100545.16;6251215;28;20310;-66
2023/08/30 10:57:43;;;;;;;3.17;2.88;;;;;;;22.25;55.36;100554.44;6249992;28;20227;-65
2023/08/30 11:01:07;;;;;;;3.33;2.97;;;;;;;21.61;56.38;100548.94;6225722;28;20236;-67
2023/08/30 11:04:28;;;;;;;4.28;3.28;;;;;;;21.55;57.55;100552.56;6222778;28;20232;-68
2023/08/30 11:07:50;;;;;;;3.78;3.05;;;;;;;22.32;57.09;100544.22;6241065;28;20223;-71
2023/08/30 11:11:14;;;;;;;3.03;2.72;;;;;;;22.67;56.09;100528.19;6226654;28;20735;-69
2023/08/30 11:14:35;;;;;;;3.58;3.28;;;;;;;22.84;54.36;100526.59;6226023;28;20250;-70
2023/08/30 11:18:04;;;;;;;4.47;3.25;;;;;;;23.43;53.27;100528.78;6243672;28;20223;-72
2023/08/30 11:21:25;;;;;;;4.85;2.35;;;;;;;22.76;51.10;100535.09;6239143;28;20231;-67
2023/08/30 11:24:48;;;;;;;5.05;2.22;;;;;;;21.27;54.05;100532.81;6242275;28;20231;-68
2023/08/30 11:28:10;;;;;;;4.35;2.53;;;;;;;21.10;54.69;100535.16;6229972;28;20235;-71
2023/08/30 11:31:30;;;;;;;4.13;2.92;;;;;;;21.32;55.02;100524.75;6233404;28;20357;-68
2023/08/30 11:34:58;;;;;;;2.95;2.55;;;;;;;21.37;54.90;100533.22;6239514;28;20314;-67
2023/08/30 11:38:20;;;;;;;4.00;2.78;;;;;;;22.20;53.12;100521.28;6236518;28;20227;-68
2023/08/30 11:41:41;;;;;;;3.78;3.20;;;;;;;23.65;50.13;100519.00;6240584;28;20232;-68
2023/08/30 11:45:02;;;;;;;4.45;3.00;;;;;;;21.81;53.03;100524.19;6231101;28;20219;-67
2023/08/30 11:48:23;;;;;;;3.60;3.25;;;;;;;22.98;49.39;100523.50;6224206;28;20255;-68
2023/08/30 11:51:47;;;;;;;6.60;3.58;;;;;;;24.12;48.38;100503.59;6231732;28;20676;-66
2023/08/30 11:55:08;;;;;;;4.60;3.42;;;;;;;22.70;49.22;100519.47;6228834;28;20227;-69
2023/08/30 11:58:33;;;;;;;4.60;2.78;;;;;;;22.78;51.08;100510.97;6229162;28;20239;-67
2023/08/30 12:01:54;;;;;;;5.35;3.17;;;;;;;23.66;48.95;100490.38;6244372;28;20251;-68
2023/08/30 12:05:15;;;;;;;3.50;3.10;;;;;;;24.72;47.43;100485.06;6211953;28;20791;-67
2023/08/30 12:08:37;;;;;;;6.82;3.65;;;;;;;24.75;47.15;100481.84;6240128;28;20232;-68
2023/08/30 12:12:06;;;;;;;4.00;3.28;;;;;;;24.07;48.50;100479.50;6243997;28;20232;-69
2023/08/30 12:15:27;;;;;;;5.10;3.17;;;;;;;25.25;45.31;100486.69;6220500;28;20674;-69
2023/08/30 12:18:48;;;;;;;6.95;3.50;;;;;;;24.74;46.57;100485.72;6237409;28;20224;-69
2023/08/30 12:22:09;;;;;;;4.53;2.78;;;;;;;25.01;46.25;100493.25;6238197;28;20219;-69
2023/08/30 12:25:33;;;;;;;5.22;3.53;;;;;;;25.54;45.38;100487.63;6221462;28;20240;-68
2023/08/30 12:28:54;;;;;;;3.55;3.25;;;;;;;26.49;42.77;100480.44;6244911;28;20850;-68
2023/08/30 12:32:17;;;;;;;5.90;2.70;;;;;;;24.12;46.52;100481.53;6239203;28;20231;-68
2023/08/30 12:35:38;;;;;;;2.83;2.55;;;;;;;26.21;43.14;100485.97;6232457;28;20596;-69
2023/08/30 12:38:59;;;;;;;6.68;2.90;;;;;;;24.70;45.68;100452.19;6231153;28;20550;-66
2023/08/30 12:42:22;;;;;;;3.40;2.97;;;;;;;26.37;42.94;100454.75;6244004;28;20254;-66
2023/08/30 12:45:43;;;;;;;2.95;2.75;;;;;;;26.53;43.19;100458.63;6235545;28;20235;-67
2023/08/30 12:49:05;;;;;;;5.72;3.72;;;;;;;22.49;49.33;100462.97;6219246;28;20286;-66
2023/08/30 12:52:25;;;;;;;3.97;2.97;;;;;;;22.59;51.10;100454.28;6240265;28;20235;-66
2023/08/30 12:55:46;;;;;;;6.32;2.55;;;;;;;25.99;46.01;100440.75;6230760;28;20238;-66
2023/08/30 12:59:08;;;;;;;3.28;2.90;;;;;;;24.34;46.74;100433.09;6219308;28;20240;-68
2023/08/30 13:02:29;;;;;;;2.75;2.47;;;;;;;26.75;45.53;100424.47;6233331;28;20238;-68
2023/08/30 13:05:50;;;;;;;4.32;3.80;;;;;;;27.28;42.85;100423.88;6237506;28;20231;-67
2023/08/30 13:09:11;;;;;;;3.45;3.15;;;;;;;27.24;42.21;100413.56;6236299;28;20263;-66
2023/08/30 13:12:32;;;;;;;4.60;2.60;;;;;;;28.19;39.42;100414.72;6252373;28;20609;-69
2023/08/30 13:15:54;;;;;;;3.17;2.88;;;;;;;25.14;43.98;100424.03;6240136;28;20228;-67
2023/08/30 13:19:15;;;;;;;2.95;2.67;;;;;;;26.10;44.25;100418.63;6243341;28;20223;-68
2023/08/30 13:22:36;;;;;;;3.30;3.00;;;;;;;24.81;44.93;100420.22;6253127;28;20246;-69
2023/08/30 13:25:57;;;;;;;8.27;3.42;;;;;;;26.43;42.94;100401.22;6240932;28;20231;-68
2023/08/30 13:29:18;;;;;;;4.10;2.50;;;;;;;25.92;42.90;100409.66;6236335;28;20243;-68
2023/08/30 13:32:40;;;;;;;3.17;2.78;;;;;;;24.84;45.48;100411.47;6251592;28;20243;-65
2023/08/30 13:36:03;;;;;;;6.03;5.00;;;;;;;27.22;42.80;100402.75;6220305;28;20539;-66
2023/08/30 13:39:23;;;;;;;3.28;2.88;;;;;;;24.67;45.25;100419.59;6234218;28;20233;-66
2023/08/30 13:42:44;;;;;;;4.32;2.97;;;;;;;26.76;42.94;100400.41;6233812;28;20230;-67
2023/08/30 13:46:05;;;;;;;5.00;3.65;;;;;;;25.27;42.96;100398.09;6238922;28;21381;-67
2023/08/30 13:49:27;;;;;;;2.53;2.33;;;;;;;23.81;46.34;100391.72;6230602;28;20231;-69
2023/08/30 13:52:48;;;;;;;5.57;3.28;;;;;;;22.95;49.38;100394.69;6246455;28;21926;-68
2023/08/30 13:56:09;;;;;;;4.55;2.63;;;;;;;22.80;49.28;100388.72;6239846;28;20260;-67
2023/08/30 13:59:30;;;;;;;4.25;2.53;;;;;;;23.40;48.16;100395.25;6237874;28;20228;-68
2023/08/30 14:02:51;;;;;;;3.60;3.10;;;;;;;22.56;49.00;100397.81;6245163;28;20231;-68
2023/08/30 14:06:13;;;;;;;2.70;2.28;;;;;;;22.58;49.80;100381.09;6245301;28;20252;-68
2023/08/30 14:09:36;;;;;;;5.63;3.38;;;;;;;23.68;47.85;100380.88;6237781;28;20277;-69
2023/08/30 14:12:57;;;;;;;2.88;2.63;;;;;;;23.25;47.57;100382.91;6247901;28;20228;-68
2023/08/30 14:16:18;;;;;;;3.47;2.78;;;;;;;24.01;46.45;100374.91;6245899;28;20699;-67
2023/08/30 14:19:38;;;;;;;3.63;2.97;;;;;;;22.76;48.97;100376.50;6233506;28;20220;-67
2023/08/30 14:23:01;;;;;;;2.90;2.60;;;;;;;23.63;47.02;100378.84;6242588;28;20228;-67
2023/08/30 14:26:22;;;;;;;2.90;2.33;;;;;;;23.33;47.45;100377.97;6243333;28;20235;-67
2023/08/30 14:29:43;;;;;;;2.53;2.08;;;;;;;22.71;49.50;100370.84;6236073;28;20231;-67
2023/08/30 14:33:05;;;;;;;4.05;2.83;;;;;;;22.32;50.10;100382.16;6242678;28;20696;-68
2023/08/30 14:36:26;;;;;;;3.50;3.00;;;;;;;21.89;50.90;100383.97;6246155;28;20291;-68
2023/08/30 14:39:48;;;;;;;3.30;2.88;;;;;;;21.63;51.42;100392.34;6229952;28;20232;-67
2023/08/30 14:43:09;;;;;;;4.82;2.67;;;;;;;21.13;52.37;100389.41;6242805;28;20232;-67
2023/08/30 14:46:30;;;;;;;2.63;2.25;;;;;;;21.77;51.69;100383.81;6243728;28;20310;-67
2023/08/30 14:49:51;;;;;;;3.88;3.10;;;;;;;21.69;51.58;100384.09;6244030;28;20243;-67
2023/08/30 14:53:12;;;;;;;2.88;2.58;;;;;;;21.71;51.99;100387.47;6246464;28;20350;-67
2023/08/30 14:56:34;;;;;;;2.67;2.30;;;;;;;21.95;52.00;100378.44;6232596;28;20260;-67
2023/08/30 14:59:55;;;;;;;2.70;2.20;;;;;;;22.06;51.19;100377.75;6230332;28;20228;-67
2023/08/30 15:03:16;;;;;;;5.50;2.55;;;;;;;21.69;51.56;100386.00;6240726;28;20235;-67
2023/08/30 15:06:39;;;;;;;3.63;2.92;;;;;;;21.47;52.40;100386.31;6241802;28;20283;-67
2023/08/30 15:10:00;;;;;;;4.82;3.25;;;;;;;21.23;53.29;100383.47;6231062;28;20231;-68
2023/08/30 15:13:23;;;;;;;4.15;2.97;;;;;;;21.11;53.88;100382.47;6228812;28;20493;-67
2023/08/30 15:16:44;;;;;;;7.05;2.60;;;;;;;21.20;54.21;100394.88;6223968;28;20741;-66
2023/08/30 15:20:07;;;;;;;2.60;2.40;;;;;;;21.15;53.91;100378.25;6216340;28;20632;-67
2023/08/30 15:23:28;;;;;;;3.85;2.83;;;;;;;20.99;54.03;100381.41;6227647;28;20231;-68
2023/08/30 15:26:48;;;;;;;2.90;2.38;;;;;;;21.14;53.69;100379.28;6232574;28;20253;-68
2023/08/30 15:30:13;;;;;;;3.03;2.28;;;;;;;21.15;53.68;100381.81;6229883;28;20740;-68
2023/08/30 15:33:34;;;;;;;3.35;3.03;;;;;;;20.97;54.68;100376.16;6245834;28;20235;-68
2023/08/30 15:36:54;;;;;;;4.18;3.20;;;;;;;20.65;55.73;100377.09;6247859;28;20334;-68
2023/08/30 15:40:15;;;;;;;3.22;2.92;;;;;;;20.59;56.15;100384.25;6234337;28;20228;-68